Дата Пункты Температура Давл., мм. Влажн., % Ветер Погодные явления
Воздуха Воды Направл. Скорость
10.12.17 02:00 Одесса 2.0 9.0 747 95 З 4 14 часов
10.12.17 11:00 Одесса 10.0 9.0 747 93 Ю-З 2 11 часов
10.12.17 08:00 Одесса 10.0 9.0 748 90 Ю-З 3 08 часов
10.12.17 05:00 Одесса 10.0 8.0 749 90 Ю-З 4 05 часов
10.12.17 02:00 Одесса 10.0 8.0 750 91 Ю-З 2 02 часа
09.12.17 11:00 Одесса 9.0 8.0 751 95 Ю 4 23 часа
09.12.17 08:00 Одесса 9.0 8.0 752 95 Ю-З 3 20 часов
09.12.17 05:00 Одесса 9.0 8.0 753 93 Ю-З 2 17 часов
09.12.17 02:00 Одесса 10.0 8.0 754 83 Ю 3 14 часов
09.12.17 11:00 Одесса 9.0 8.0 755 77 Ю-З 1 11 часов
09.12.17 08:00 Одесса 5.0 8.0 756 85 Ю-З 3 08 часов
09.12.17 05:00 Одесса 4.0 8.0 756 88 Ю-З 3 05 часов
09.12.17 02:00 Одесса 3.0 8.0 757 85 З 2 02 часа
08.12.17 11:00 Одесса 4.0 8.0 757 90 З 2 23 часа
08.12.17 08:00 Одесса 6.0 8.0 758 89 З 2 20 часов
08.12.17 05:00 Одесса 6.0 8.0 758 90 Ю 2 17 часов
08.12.17 02:00 Одесса 7.0 8.0 759 84 Ю 4 14 часов
08.12.17 11:00 Одесса 8.0 8.0 760 72 Ю 2 11 часов
08.12.17 08:00 Одесса 2.0 8.0 760 90 З 2 08 часов
08.12.17 05:00 Одесса 2.0 8.0 760 89 З 2 05 часов
Количество строк
1 2 3 4 5 6 7 8 9 10
Page 2 of 305